sensor_id;sensor_type;location;lat;lon;timestamp;pressure;altitude;pressure_sealevel;temperature;humidity
19114;BME280;9689;51.052;13.772;2023-03-04T00:02:02;100872.59;;;1.10;78.29
19114;BME280;9689;51.052;13.772;2023-03-04T00:07:03;100868.75;;;1.26;77.46
19114;BME280;9689;51.052;13.772;2023-03-04T00:12:06;100863.50;;;1.22;78.23
19114;BME280;9689;51.052;13.772;2023-03-04T00:17:07;100858.31;;;1.20;77.96
19114;BME280;9689;51.052;13.772;2023-03-04T00:22:08;100859.28;;;1.24;78.34
19114;BME280;9689;51.052;13.772;2023-03-04T00:27:10;100852.34;;;1.21;77.63
19114;BME280;9689;51.052;13.772;2023-03-04T00:32:10;100839.69;;;1.27;77.54
19114;BME280;9689;51.052;13.772;2023-03-04T00:37:11;100837.91;;;1.25;77.71
19114;BME280;9689;51.052;13.772;2023-03-04T00:42:13;100843.09;;;1.26;77.80
19114;BME280;9689;51.052;13.772;2023-03-04T00:47:14;100845.53;;;1.22;78.18
19114;BME280;9689;51.052;13.772;2023-03-04T00:52:15;100825.16;;;1.28;78.06
19114;BME280;9689;51.052;13.772;2023-03-04T00:57:17;100816.69;;;1.30;77.81
19114;BME280;9689;51.052;13.772;2023-03-04T01:02:18;100828.69;;;1.31;77.95
19114;BME280;9689;51.052;13.772;2023-03-04T01:07:19;100821.94;;;1.36;77.97
19114;BME280;9689;51.052;13.772;2023-03-04T01:12:21;100814.25;;;1.36;77.59
19114;BME280;9689;51.052;13.772;2023-03-04T01:17:22;100815.22;;;1.40;77.66
19114;BME280;9689;51.052;13.772;2023-03-04T01:22:23;100800.66;;;1.40;77.05
19114;BME280;9689;51.052;13.772;2023-03-04T01:27:25;100782.69;;;1.40;76.94
19114;BME280;9689;51.052;13.772;2023-03-04T01:32:26;100785.31;;;1.44;77.65
19114;BME280;9689;51.052;13.772;2023-03-04T01:37:26;100775.84;;;1.41;77.01
19114;BME280;9689;51.052;13.772;2023-03-04T01:42:31;100769.69;;;1.34;77.44
19114;BME280;9689;51.052;13.772;2023-03-04T01:47:33;100771.56;;;1.40;76.76
19114;BME280;9689;51.052;13.772;2023-03-04T01:52:41;100763.06;;;1.42;76.88
19114;BME280;9689;51.052;13.772;2023-03-04T01:57:44;100761.38;;;1.45;76.51
19114;BME280;9689;51.052;13.772;2023-03-04T02:02:45;100752.00;;;1.47;76.88
19114;BME280;9689;51.052;13.772;2023-03-04T02:07:49;100752.75;;;1.41;76.57
19114;BME280;9689;51.052;13.772;2023-03-04T02:12:52;100732.97;;;1.38;76.31
19114;BME280;9689;51.052;13.772;2023-03-04T02:17:53;100735.69;;;1.45;76.38
19114;BME280;9689;51.052;13.772;2023-03-04T02:23:00;100724.47;;;1.39;76.36
19114;BME280;9689;51.052;13.772;2023-03-04T02:28:04;100729.69;;;1.44;76.37
19114;BME280;9689;51.052;13.772;2023-03-04T02:33:05;100731.44;;;1.45;76.48
19114;BME280;9689;51.052;13.772;2023-03-04T02:38:08;100722.84;;;1.43;76.10
19114;BME280;9689;51.052;13.772;2023-03-04T02:43:11;100716.91;;;1.47;76.12
19114;BME280;9689;51.052;13.772;2023-03-04T02:48:13;100713.47;;;1.47;76.08
19114;BME280;9689;51.052;13.772;2023-03-04T02:53:14;100699.78;;;1.46;75.94
19114;BME280;9689;51.052;13.772;2023-03-04T02:58:17;100700.56;;;1.42;76.30
19114;BME280;9689;51.052;13.772;2023-03-04T03:03:18;100688.44;;;1.36;76.71
19114;BME280;9689;51.052;13.772;2023-03-04T03:08:19;100684.28;;;1.41;76.42
19114;BME280;9689;51.052;13.772;2023-03-04T03:13:21;100684.28;;;1.41;76.82
19114;BME280;9689;51.052;13.772;2023-03-04T03:18:24;100682.63;;;1.44;76.49
19114;BME280;9689;51.052;13.772;2023-03-04T03:23:24;100671.44;;;1.41;76.82
19114;BME280;9689;51.052;13.772;2023-03-04T03:28:27;100672.22;;;1.39;77.04
19114;BME280;9689;51.052;13.772;2023-03-04T03:33:28;100673.91;;;1.38;76.81
19114;BME280;9689;51.052;13.772;2023-03-04T03:38:28;100665.44;;;1.41;76.81
19114;BME280;9689;51.052;13.772;2023-03-04T03:43:30;100655.19;;;1.42;76.87
19114;BME280;9689;51.052;13.772;2023-03-04T03:48:31;100658.50;;;1.37;76.63
19114;BME280;9689;51.052;13.772;2023-03-04T03:53:32;100661.00;;;1.34;77.08
19114;BME280;9689;51.052;13.772;2023-03-04T03:58:34;100659.38;;;1.39;76.66
19114;BME280;9689;51.052;13.772;2023-03-04T04:03:34;100662.69;;;1.33;77.28
19114;BME280;9689;51.052;13.772;2023-03-04T04:08:35;100660.22;;;1.38;77.28
19114;BME280;9689;51.052;13.772;2023-03-04T04:13:38;100662.00;;;1.40;77.10
19114;BME280;9689;51.052;13.772;2023-03-04T04:18:38;100666.31;;;1.41;77.01
19114;BME280;9689;51.052;13.772;2023-03-04T04:23:39;100676.59;;;1.43;76.57
19114;BME280;9689;51.052;13.772;2023-03-04T04:28:41;100682.44;;;1.36;76.22
19114;BME280;9689;51.052;13.772;2023-03-04T04:33:42;100665.56;;;1.47;76.41
19114;BME280;9689;51.052;13.772;2023-03-04T04:38:43;100665.53;;;1.46;76.60
19114;BME280;9689;51.052;13.772;2023-03-04T04:43:46;100665.63;;;1.49;76.04
19114;BME280;9689;51.052;13.772;2023-03-04T04:48:47;100663.13;;;1.53;75.67
19114;BME280;9689;51.052;13.772;2023-03-04T04:53:47;100669.94;;;1.51;76.10
19114;BME280;9689;51.052;13.772;2023-03-04T04:58:49;100669.25;;;1.58;75.43
19114;BME280;9689;51.052;13.772;2023-03-04T05:03:51;100649.44;;;1.53;75.72
19114;BME280;9689;51.052;13.772;2023-03-04T05:08:53;100655.59;;;1.61;75.97
19114;BME280;9689;51.052;13.772;2023-03-04T05:13:55;100655.72;;;1.65;75.68
19114;BME280;9689;51.052;13.772;2023-03-04T05:18:56;100648.00;;;1.65;75.71
19114;BME280;9689;51.052;13.772;2023-03-04T05:23:57;100656.69;;;1.72;75.04
19114;BME280;9689;51.052;13.772;2023-03-04T05:28:59;100665.25;;;1.73;75.01
19114;BME280;9689;51.052;13.772;2023-03-04T05:34:00;100648.13;;;1.72;74.90
19114;BME280;9689;51.052;13.772;2023-03-04T05:39:00;100641.28;;;1.72;74.76
19114;BME280;9689;51.052;13.772;2023-03-04T05:44:03;100627.72;;;1.79;74.97
19114;BME280;9689;51.052;13.772;2023-03-04T05:49:03;100632.13;;;1.83;74.69
19114;BME280;9689;51.052;13.772;2023-03-04T05:54:04;100632.06;;;1.82;74.99
19114;BME280;9689;51.052;13.772;2023-03-04T05:59:06;100629.56;;;1.83;74.69
19114;BME280;9689;51.052;13.772;2023-03-04T06:04:07;100626.13;;;1.84;75.02
19114;BME280;9689;51.052;13.772;2023-03-04T06:09:07;100629.69;;;1.91;74.75
19114;BME280;9689;51.052;13.772;2023-03-04T06:14:09;100621.22;;;1.95;75.04
19114;BME280;9689;51.052;13.772;2023-03-04T06:19:10;100617.06;;;2.02;74.62
19114;BME280;9689;51.052;13.772;2023-03-04T06:24:11;100619.81;;;2.11;74.40
19114;BME280;9689;51.052;13.772;2023-03-04T06:29:13;100620.56;;;2.07;74.78
19114;BME280;9689;51.052;13.772;2023-03-04T06:34:14;100618.00;;;2.07;74.45
19114;BME280;9689;51.052;13.772;2023-03-04T06:39:15;100621.34;;;2.03;75.44
19114;BME280;9689;51.052;13.772;2023-03-04T06:44:17;100619.78;;;2.09;75.18
19114;BME280;9689;51.052;13.772;2023-03-04T06:49:18;100615.44;;;2.08;75.54
19114;BME280;9689;51.052;13.772;2023-03-04T06:54:19;100612.00;;;2.08;75.57
19114;BME280;9689;51.052;13.772;2023-03-04T06:59:21;100619.69;;;2.06;75.94
19114;BME280;9689;51.052;13.772;2023-03-04T07:04:22;100615.53;;;2.11;76.48
19114;BME280;9689;51.052;13.772;2023-03-04T07:09:23;100619.00;;;2.15;76.28
19114;BME280;9689;51.052;13.772;2023-03-04T07:14:25;100614.03;;;2.24;76.42
19114;BME280;9689;51.052;13.772;2023-03-04T07:19:27;100600.34;;;2.25;76.26
19114;BME280;9689;51.052;13.772;2023-03-04T07:24:28;100608.84;;;2.21;76.81
19114;BME280;9689;51.052;13.772;2023-03-04T07:29:30;100621.72;;;2.22;77.01
19114;BME280;9689;51.052;13.772;2023-03-04T07:34:31;100608.03;;;2.23;77.15
19114;BME280;9689;51.052;13.772;2023-03-04T07:39:32;100603.75;;;2.24;77.24
19114;BME280;9689;51.052;13.772;2023-03-04T07:44:35;100618.50;;;2.34;76.92
19114;BME280;9689;51.052;13.772;2023-03-04T07:49:36;100606.56;;;2.35;77.23
19114;BME280;9689;51.052;13.772;2023-03-04T07:54:36;100598.06;;;2.40;77.33
19114;BME280;9689;51.052;13.772;2023-03-04T07:59:39;100608.53;;;2.51;77.18
19114;BME280;9689;51.052;13.772;2023-03-04T08:04:39;100605.19;;;2.55;77.22
19114;BME280;9689;51.052;13.772;2023-03-04T08:09:40;100604.38;;;2.59;77.27
19114;BME280;9689;51.052;13.772;2023-03-04T08:14:43;100594.22;;;2.67;77.07
19114;BME280;9689;51.052;13.772;2023-03-04T08:19:43;100587.63;;;2.82;76.34
19114;BME280;9689;51.052;13.772;2023-03-04T08:24:44;100593.94;;;3.03;75.56
19114;BME280;9689;51.052;13.772;2023-03-04T08:29:46;100587.00;;;2.97;75.94
19114;BME280;9689;51.052;13.772;2023-03-04T08:34:47;100586.09;;;2.95;76.21
19114;BME280;9689;51.052;13.772;2023-03-04T08:39:48;100589.66;;;3.03;76.45
19114;BME280;9689;51.052;13.772;2023-03-04T08:44:50;100584.69;;;3.14;76.29
19114;BME280;9689;51.052;13.772;2023-03-04T08:49:50;100584.72;;;3.17;76.13
19114;BME280;9689;51.052;13.772;2023-03-04T08:54:52;100585.00;;;3.37;75.97
19114;BME280;9689;51.052;13.772;2023-03-04T08:59:54;100580.56;;;3.28;76.25
19114;BME280;9689;51.052;13.772;2023-03-04T09:04:55;100579.34;;;3.02;77.57
19114;BME280;9689;51.052;13.772;2023-03-04T09:09:56;100583.84;;;3.15;77.34
19114;BME280;9689;51.052;13.772;2023-03-04T09:14:58;100575.41;;;3.25;77.15
19114;BME280;9689;51.052;13.772;2023-03-04T09:20:11;100574.66;;;3.34;77.34
19114;BME280;9689;51.052;13.772;2023-03-04T09:25:13;100580.78;;;3.42;76.48
19114;BME280;9689;51.052;13.772;2023-03-04T09:30:16;100601.47;;;3.48;76.84
19114;BME280;9689;51.052;13.772;2023-03-04T09:35:17;100583.47;;;3.51;76.57
19114;BME280;9689;51.052;13.772;2023-03-04T09:40:20;100588.63;;;3.50;76.43
19114;BME280;9689;51.052;13.772;2023-03-04T09:45:26;100573.91;;;3.41;76.98
19114;BME280;9689;51.052;13.772;2023-03-04T09:50:32;100571.66;;;3.65;76.78
19114;BME280;9689;51.052;13.772;2023-03-04T09:55:37;100567.34;;;3.66;76.23
19114;BME280;9689;51.052;13.772;2023-03-04T10:00:53;100573.25;;;3.57;76.76
19114;BME280;9689;51.052;13.772;2023-03-04T10:05:58;100578.44;;;3.62;76.94
19114;BME280;9689;51.052;13.772;2023-03-04T10:11:01;100551.06;;;3.68;76.55
19114;BME280;9689;51.052;13.772;2023-03-04T10:16:05;100550.41;;;3.88;75.53
19114;BME280;9689;51.052;13.772;2023-03-04T10:21:18;100538.38;;;3.90;76.43
19114;BME280;9689;51.052;13.772;2023-03-04T10:26:20;100540.06;;;3.83;76.67
19114;BME280;9689;51.052;13.772;2023-03-04T10:31:31;100530.81;;;4.02;76.22
19114;BME280;9689;51.052;13.772;2023-03-04T10:36:41;100526.44;;;3.95;76.34
19114;BME280;9689;51.052;13.772;2023-03-04T10:41:53;100525.81;;;4.17;74.99
19114;BME280;9689;51.052;13.772;2023-03-04T10:46:56;100532.59;;;4.09;75.72
19114;BME280;9689;51.052;13.772;2023-03-04T10:52:01;100517.06;;;4.06;77.01
19114;BME280;9689;51.052;13.772;2023-03-04T10:57:04;100517.91;;;4.01;76.38
19114;BME280;9689;51.052;13.772;2023-03-04T11:02:24;100521.28;;;4.00;76.77
19114;BME280;9689;51.052;13.772;2023-03-04T11:07:26;100515.34;;;4.02;77.08
19114;BME280;9689;51.052;13.772;2023-03-04T11:12:32;100517.06;;;4.05;76.60
19114;BME280;9689;51.052;13.772;2023-03-04T11:17:43;100516.44;;;4.29;76.43
19114;BME280;9689;51.052;13.772;2023-03-04T11:22:45;100512.00;;;4.17;76.37
19114;BME280;9689;51.052;13.772;2023-03-04T11:27:53;100507.00;;;4.32;76.42
19114;BME280;9689;51.052;13.772;2023-03-04T11:33:04;100501.97;;;4.47;76.20
19114;BME280;9689;51.052;13.772;2023-03-04T11:38:16;100504.75;;;4.72;74.69
19114;BME280;9689;51.052;13.772;2023-03-04T11:43:21;100496.88;;;4.60;74.58
19114;BME280;9689;51.052;13.772;2023-03-04T11:48:36;100499.44;;;4.53;74.99
19114;BME280;9689;51.052;13.772;2023-03-04T11:53:46;100490.78;;;4.45;75.34
19114;BME280;9689;51.052;13.772;2023-03-04T11:59:06;100488.13;;;4.35;76.24
19114;BME280;9689;51.052;13.772;2023-03-04T12:04:37;100474.38;;;4.39;76.14
19114;BME280;9689;51.052;13.772;2023-03-04T12:09:43;100474.44;;;4.48;75.36
19114;BME280;9689;51.052;13.772;2023-03-04T12:14:51;100455.63;;;4.61;74.22
19114;BME280;9689;51.052;13.772;2023-03-04T12:20:15;100461.78;;;4.83;73.31
19114;BME280;9689;51.052;13.772;2023-03-04T12:25:33;100449.91;;;5.13;72.40
19114;BME280;9689;51.052;13.772;2023-03-04T12:30:51;100440.38;;;5.04;72.19
19114;BME280;9689;51.052;13.772;2023-03-04T12:36:06;100432.59;;;5.02;72.72
19114;BME280;9689;51.052;13.772;2023-03-04T12:41:22;100427.50;;;5.18;71.62
19114;BME280;9689;51.052;13.772;2023-03-04T12:46:36;100420.59;;;5.09;71.50
19114;BME280;9689;51.052;13.772;2023-03-04T12:51:44;100425.75;;;5.10;71.14
19114;BME280;9689;51.052;13.772;2023-03-04T12:56:51;100425.78;;;5.14;71.44
19114;BME280;9689;51.052;13.772;2023-03-04T13:02:03;100418.91;;;5.19;71.96
19114;BME280;9689;51.052;13.772;2023-03-04T13:07:13;100417.16;;;5.11;71.28
19114;BME280;9689;51.052;13.772;2023-03-04T13:12:18;100409.47;;;5.22;71.41
19114;BME280;9689;51.052;13.772;2023-03-04T13:17:39;100412.91;;;5.23;70.61
19114;BME280;9689;51.052;13.772;2023-03-04T13:22:48;100411.19;;;5.28;70.91
19114;BME280;9689;51.052;13.772;2023-03-04T13:28:11;100409.50;;;5.31;70.69
19114;BME280;9689;51.052;13.772;2023-03-04T13:33:43;100395.69;;;5.38;69.87
19114;BME280;9689;51.052;13.772;2023-03-04T13:38:56;100387.94;;;5.37;69.95
19114;BME280;9689;51.052;13.772;2023-03-04T13:43:59;100386.25;;;5.45;68.73
19114;BME280;9689;51.052;13.772;2023-03-04T13:49:02;100399.16;;;5.44;68.52
19114;BME280;9689;51.052;13.772;2023-03-04T13:54:12;100358.72;;;5.67;67.38
19114;BME280;9689;51.052;13.772;2023-03-04T13:59:23;100369.06;;;5.81;67.16
19114;BME280;9689;51.052;13.772;2023-03-04T14:04:28;100387.19;;;5.82;67.00
19114;BME280;9689;51.052;13.772;2023-03-04T14:09:33;100367.34;;;5.86;66.81
19114;BME280;9689;51.052;13.772;2023-03-04T14:14:41;100365.59;;;5.82;67.47
19114;BME280;9689;51.052;13.772;2023-03-04T14:19:46;100361.31;;;5.84;68.12
19114;BME280;9689;51.052;13.772;2023-03-04T14:25:03;100369.06;;;5.82;67.40
19114;BME280;9689;51.052;13.772;2023-03-04T14:30:06;100370.78;;;5.85;66.92
19114;BME280;9689;51.052;13.772;2023-03-04T14:35:22;100378.53;;;5.79;67.82
19114;BME280;9689;51.052;13.772;2023-03-04T14:40:26;100357.84;;;5.86;67.60
19114;BME280;9689;51.052;13.772;2023-03-04T14:45:29;100354.44;;;5.92;66.50
19114;BME280;9689;51.052;13.772;2023-03-04T14:50:31;100369.09;;;5.94;66.71
19114;BME280;9689;51.052;13.772;2023-03-04T14:55:35;100347.56;;;5.91;66.96
19114;BME280;9689;51.052;13.772;2023-03-04T15:00:37;100351.84;;;5.97;67.12
19114;BME280;9689;51.052;13.772;2023-03-04T15:05:39;100345.81;;;6.01;64.71
19114;BME280;9689;51.052;13.772;2023-03-04T15:10:41;100340.63;;;5.96;64.61
19114;BME280;9689;51.052;13.772;2023-03-04T15:15:44;100352.72;;;6.02;63.50
19114;BME280;9689;51.052;13.772;2023-03-04T15:20:52;100339.78;;;5.97;63.20
19114;BME280;9689;51.052;13.772;2023-03-04T15:25:56;100341.47;;;6.07;63.15
19114;BME280;9689;51.052;13.772;2023-03-04T15:30:58;100345.81;;;6.05;60.37
19114;BME280;9689;51.052;13.772;2023-03-04T15:36:01;100343.22;;;5.98;59.54
19114;BME280;9689;51.052;13.772;2023-03-04T15:41:03;100353.59;;;5.94;58.95
19114;BME280;9689;51.052;13.772;2023-03-04T15:46:04;100336.31;;;5.80;58.82
19114;BME280;9689;51.052;13.772;2023-03-04T15:51:11;100347.53;;;5.66;59.13
19114;BME280;9689;51.052;13.772;2023-03-04T15:56:17;100354.41;;;5.63;59.39
19114;BME280;9689;51.052;13.772;2023-03-04T16:01:21;100353.56;;;5.56;59.62
19114;BME280;9689;51.052;13.772;2023-03-04T16:06:24;100363.88;;;5.50;59.71
19114;BME280;9689;51.052;13.772;2023-03-04T16:11:39;100363.84;;;5.33;61.53
19114;BME280;9689;51.052;13.772;2023-03-04T16:16:40;100362.94;;;5.18;62.40
19114;BME280;9689;51.052;13.772;2023-03-04T16:21:42;100357.75;;;5.16;63.14
19114;BME280;9689;51.052;13.772;2023-03-04T16:26:45;100358.59;;;5.12;63.20
19114;BME280;9689;51.052;13.772;2023-03-04T16:31:46;100349.13;;;5.05;63.86
19114;BME280;9689;51.052;13.772;2023-03-04T16:36:47;100347.41;;;5.08;63.13
19114;BME280;9689;51.052;13.772;2023-03-04T16:41:50;100352.56;;;5.08;63.18
19114;BME280;9689;51.052;13.772;2023-03-04T16:46:50;100361.19;;;5.06;63.45
19114;BME280;9689;51.052;13.772;2023-03-04T16:51:51;100356.88;;;5.08;63.87
19114;BME280;9689;51.052;13.772;2023-03-04T16:56:53;100363.75;;;5.06;63.94
19114;BME280;9689;51.052;13.772;2023-03-04T17:01:55;100363.69;;;4.94;66.69
19114;BME280;9689;51.052;13.772;2023-03-04T17:06:56;100357.56;;;4.64;70.12
19114;BME280;9689;51.052;13.772;2023-03-04T17:11:58;100368.69;;;4.52;72.19
19114;BME280;9689;51.052;13.772;2023-03-04T17:17:01;100362.59;;;4.41;73.07
19114;BME280;9689;51.052;13.772;2023-03-04T17:22:02;100369.47;;;4.36;73.95
19114;BME280;9689;51.052;13.772;2023-03-04T17:27:06;100380.53;;;4.24;75.36
19114;BME280;9689;51.052;13.772;2023-03-04T17:32:07;100387.34;;;4.13;76.20
19114;BME280;9689;51.052;13.772;2023-03-04T17:37:08;100381.31;;;4.11;76.38
19114;BME280;9689;51.052;13.772;2023-03-04T17:42:10;100397.66;;;4.15;76.05
19114;BME280;9689;51.052;13.772;2023-03-04T17:47:12;100395.94;;;4.17;75.89
19114;BME280;9689;51.052;13.772;2023-03-04T17:52:12;100392.50;;;4.13;75.73
19114;BME280;9689;51.052;13.772;2023-03-04T17:57:17;100398.50;;;4.12;74.05
19114;BME280;9689;51.052;13.772;2023-03-04T18:02:18;100395.94;;;4.15;74.34
19114;BME280;9689;51.052;13.772;2023-03-04T18:07:19;100405.38;;;4.12;74.20
19114;BME280;9689;51.052;13.772;2023-03-04T18:12:21;100398.53;;;4.14;73.58
19114;BME280;9689;51.052;13.772;2023-03-04T18:17:22;100389.06;;;4.10;74.07
19114;BME280;9689;51.052;13.772;2023-03-04T18:22:23;100402.81;;;4.09;73.41
19114;BME280;9689;51.052;13.772;2023-03-04T18:27:25;100397.66;;;4.12;73.12
19114;BME280;9689;51.052;13.772;2023-03-04T18:32:26;100388.16;;;4.06;73.59
19114;BME280;9689;51.052;13.772;2023-03-04T18:37:37;100392.44;;;4.07;72.69
19114;BME280;9689;51.052;13.772;2023-03-04T18:42:39;100394.16;;;4.08;72.25
19114;BME280;9689;51.052;13.772;2023-03-04T18:47:45;100400.22;;;4.09;71.38
19114;BME280;9689;51.052;13.772;2023-03-04T18:52:48;100398.50;;;4.09;70.92
19114;BME280;9689;51.052;13.772;2023-03-04T18:57:54;100393.28;;;4.03;71.95
19114;BME280;9689;51.052;13.772;2023-03-04T19:02:58;100402.75;;;4.06;72.44
19114;BME280;9689;51.052;13.772;2023-03-04T19:08:00;100401.00;;;4.02;72.49
19114;BME280;9689;51.052;13.772;2023-03-04T19:13:03;100411.28;;;3.95;72.38
19114;BME280;9689;51.052;13.772;2023-03-04T19:18:03;100412.13;;;3.97;73.01
19114;BME280;9689;51.052;13.772;2023-03-04T19:23:04;100412.97;;;3.92;74.06
19114;BME280;9689;51.052;13.772;2023-03-04T19:28:09;100411.19;;;3.88;74.29
19114;BME280;9689;51.052;13.772;2023-03-04T19:33:10;100411.19;;;3.88;74.77
19114;BME280;9689;51.052;13.772;2023-03-04T19:38:11;100408.59;;;3.85;75.22
19114;BME280;9689;51.052;13.772;2023-03-04T19:43:13;100413.75;;;3.83;74.60
19114;BME280;9689;51.052;13.772;2023-03-04T19:48:14;100407.69;;;3.81;74.49
19114;BME280;9689;51.052;13.772;2023-03-04T19:53:15;100407.69;;;3.81;74.52
19114;BME280;9689;51.052;13.772;2023-03-04T19:58:19;100407.66;;;3.77;74.44
19114;BME280;9689;51.052;13.772;2023-03-04T20:03:20;100410.25;;;3.78;72.53
19114;BME280;9689;51.052;13.772;2023-03-04T20:08:20;100415.41;;;3.77;72.36
19114;BME280;9689;51.052;13.772;2023-03-04T20:13:23;100415.41;;;3.78;72.73
19114;BME280;9689;51.052;13.772;2023-03-04T20:18:24;100416.22;;;3.73;72.90
19114;BME280;9689;51.052;13.772;2023-03-04T20:23:25;100417.91;;;3.67;73.31
19114;BME280;9689;51.052;13.772;2023-03-04T20:28:29;100419.56;;;3.62;73.82
19114;BME280;9689;51.052;13.772;2023-03-04T20:33:30;100420.38;;;3.58;75.41
19114;BME280;9689;51.052;13.772;2023-03-04T20:38:31;100420.22;;;3.46;76.34
19114;BME280;9689;51.052;13.772;2023-03-04T20:43:33;100425.38;;;3.45;77.32
19114;BME280;9689;51.052;13.772;2023-03-04T20:48:34;100419.34;;;3.41;76.17
19114;BME280;9689;51.052;13.772;2023-03-04T20:53:35;100418.47;;;3.40;76.01
19114;BME280;9689;51.052;13.772;2023-03-04T20:58:37;100416.78;;;3.46;76.04
19114;BME280;9689;51.052;13.772;2023-03-04T21:03:38;100417.56;;;3.37;76.09
19114;BME280;9689;51.052;13.772;2023-03-04T21:08:41;100408.97;;;3.38;75.26
19114;BME280;9689;51.052;13.772;2023-03-04T21:13:44;100415.91;;;3.40;75.68
19114;BME280;9689;51.052;13.772;2023-03-04T21:18:45;100407.28;;;3.38;76.05
19114;BME280;9689;51.052;13.772;2023-03-04T21:23:45;100403.81;;;3.33;76.40
19114;BME280;9689;51.052;13.772;2023-03-04T21:28:52;100402.88;;;3.28;76.60
19114;BME280;9689;51.052;13.772;2023-03-04T21:33:54;100408.00;;;3.27;76.97
19114;BME280;9689;51.052;13.772;2023-03-04T21:38:57;100408.88;;;3.26;76.51
19114;BME280;9689;51.052;13.772;2023-03-04T21:43:59;100409.72;;;3.26;75.95
19114;BME280;9689;51.052;13.772;2023-03-04T21:49:00;100402.88;;;3.30;76.15
19114;BME280;9689;51.052;13.772;2023-03-04T21:54:02;100401.22;;;3.33;75.35
19114;BME280;9689;51.052;13.772;2023-03-04T21:59:06;100395.16;;;3.28;74.61
19114;BME280;9689;51.052;13.772;2023-03-04T22:04:07;100394.28;;;3.28;74.09
19114;BME280;9689;51.052;13.772;2023-03-04T22:09:08;100393.50;;;3.32;73.83
19114;BME280;9689;51.052;13.772;2023-03-04T22:14:12;100386.66;;;3.35;73.68
19114;BME280;9689;51.052;13.772;2023-03-04T22:19:13;100386.63;;;3.31;73.88
19114;BME280;9689;51.052;13.772;2023-03-04T22:24:13;100377.97;;;3.27;74.58
19114;BME280;9689;51.052;13.772;2023-03-04T22:29:16;100368.53;;;3.28;74.03
19114;BME280;9689;51.052;13.772;2023-03-04T22:34:16;100371.97;;;3.27;74.28
19114;BME280;9689;51.052;13.772;2023-03-04T22:39:18;100362.50;;;3.24;74.09
19114;BME280;9689;51.052;13.772;2023-03-04T22:44:20;100359.06;;;3.24;74.45
19114;BME280;9689;51.052;13.772;2023-03-04T22:49:20;100360.75;;;3.22;74.52
19114;BME280;9689;51.052;13.772;2023-03-04T22:54:21;100365.88;;;3.20;73.94
19114;BME280;9689;51.052;13.772;2023-03-04T22:59:23;100365.00;;;3.20;73.65
19114;BME280;9689;51.052;13.772;2023-03-04T23:04:24;100370.16;;;3.18;72.82
19114;BME280;9689;51.052;13.772;2023-03-04T23:09:25;100364.97;;;3.15;73.17
19114;BME280;9689;51.052;13.772;2023-03-04T23:14:28;100373.56;;;3.14;73.56
19114;BME280;9689;51.052;13.772;2023-03-04T23:19:29;100361.47;;;3.11;73.79
19114;BME280;9689;51.052;13.772;2023-03-04T23:24:29;100364.88;;;3.04;73.27
19114;BME280;9689;51.052;13.772;2023-03-04T23:29:31;100357.94;;;3.02;73.10
19114;BME280;9689;51.052;13.772;2023-03-04T23:34:32;100355.38;;;3.03;72.64
19114;BME280;9689;51.052;13.772;2023-03-04T23:39:34;100352.81;;;3.03;72.38
19114;BME280;9689;51.052;13.772;2023-03-04T23:44:37;100351.91;;;2.98;72.45
19114;BME280;9689;51.052;13.772;2023-03-04T23:49:38;100344.19;;;2.97;72.35
19114;BME280;9689;51.052;13.772;2023-03-04T23:54:38;100345.91;;;2.99;72.04
19114;BME280;9689;51.052;13.772;2023-03-04T23:59:40;100338.16;;;2.96;71.65
